Terminal Aerodrome Forecast
Issued by NWS

Home | Current Version | Previous Version | Graphics & Text | Print | Product List | Glossary On
Versions: 1 2 3 4 5 6 7 8 9 10 11 12 13 14 15 16 17 18 19 20 21 22 23 24 25 26 27 28
710
FTUS43 KBIS 271343 AAA
TAFJMS
TAF AMD
KJMS 271343Z 2714/2812 00000KT 1/2SM FG OVC002
      TEMPO 2714/2715 1/4SM FG
     FM271500 00000KT 1/2SM FG OVC005
     FM271600 13004KT 4SM BR SCT040
     FM271700 13006KT P6SM SCT200
     FM280100 10006KT P6SM FEW200
     FM281000 05005KT P6SM SCT050=

USA.gov is the U.S. government's official web portal to all federal, state and local government web resources and services.